sensor_id;sensor_type;location;lat;lon;timestamp;temperature;humidity
14705;DHT22;7442;50.840;3.396;2023-11-21T00:01:51;24.40;56.10
14705;DHT22;7442;50.840;3.396;2023-11-21T00:04:37;24.50;56.00
14705;DHT22;7442;50.840;3.396;2023-11-21T00:07:24;24.50;55.90
14705;DHT22;7442;50.840;3.396;2023-11-21T00:10:11;24.50;55.90
14705;DHT22;7442;50.840;3.396;2023-11-21T00:12:59;24.50;55.80
14705;DHT22;7442;50.840;3.396;2023-11-21T00:15:47;24.50;55.70
14705;DHT22;7442;50.840;3.396;2023-11-21T00:18:34;24.50;55.60
14705;DHT22;7442;50.840;3.396;2023-11-21T00:21:21;24.60;55.50
14705;DHT22;7442;50.840;3.396;2023-11-21T00:24:07;24.60;55.40
14705;DHT22;7442;50.840;3.396;2023-11-21T00:26:54;24.60;55.40
14705;DHT22;7442;50.840;3.396;2023-11-21T00:29:40;24.60;55.40
14705;DHT22;7442;50.840;3.396;2023-11-21T00:32:26;24.60;55.30
14705;DHT22;7442;50.840;3.396;2023-11-21T00:35:12;24.60;55.20
14705;DHT22;7442;50.840;3.396;2023-11-21T00:37:58;24.60;55.20
14705;DHT22;7442;50.840;3.396;2023-11-21T00:40:45;24.60;55.10
14705;DHT22;7442;50.840;3.396;2023-11-21T00:43:32;24.60;55.00
14705;DHT22;7442;50.840;3.396;2023-11-21T00:46:18;24.60;55.00
14705;DHT22;7442;50.840;3.396;2023-11-21T00:49:04;24.60;55.00
14705;DHT22;7442;50.840;3.396;2023-11-21T00:51:51;24.60;54.90
14705;DHT22;7442;50.840;3.396;2023-11-21T00:54:37;24.60;55.00
14705;DHT22;7442;50.840;3.396;2023-11-21T00:57:23;24.60;55.00
14705;DHT22;7442;50.840;3.396;2023-11-21T01:00:09;24.60;55.00
14705;DHT22;7442;50.840;3.396;2023-11-21T01:03:00;24.60;55.10
14705;DHT22;7442;50.840;3.396;2023-11-21T01:05:47;24.50;55.10
14705;DHT22;7442;50.840;3.396;2023-11-21T01:08:35;24.50;55.10
14705;DHT22;7442;50.840;3.396;2023-11-21T01:11:21;24.50;55.20
14705;DHT22;7442;50.840;3.396;2023-11-21T01:14:06;24.40;55.20
14705;DHT22;7442;50.840;3.396;2023-11-21T01:16:54;24.50;55.20
14705;DHT22;7442;50.840;3.396;2023-11-21T01:19:40;24.50;55.10
14705;DHT22;7442;50.840;3.396;2023-11-21T01:22:26;24.50;55.10
14705;DHT22;7442;50.840;3.396;2023-11-21T01:25:13;24.50;55.00
14705;DHT22;7442;50.840;3.396;2023-11-21T01:27:59;24.50;55.00
14705;DHT22;7442;50.840;3.396;2023-11-21T01:30:45;24.50;54.90
14705;DHT22;7442;50.840;3.396;2023-11-21T01:33:31;24.60;54.80
14705;DHT22;7442;50.840;3.396;2023-11-21T01:36:18;24.60;54.60
14705;DHT22;7442;50.840;3.396;2023-11-21T01:39:04;24.60;54.60
14705;DHT22;7442;50.840;3.396;2023-11-21T01:41:52;24.70;54.50
14705;DHT22;7442;50.840;3.396;2023-11-21T01:44:38;24.70;54.50
14705;DHT22;7442;50.840;3.396;2023-11-21T01:47:25;24.70;54.40
14705;DHT22;7442;50.840;3.396;2023-11-21T01:50:13;24.70;54.40
14705;DHT22;7442;50.840;3.396;2023-11-21T01:53:01;24.60;54.50
14705;DHT22;7442;50.840;3.396;2023-11-21T01:55:48;24.70;54.40
14705;DHT22;7442;50.840;3.396;2023-11-21T01:58:34;24.70;54.30
14705;DHT22;7442;50.840;3.396;2023-11-21T02:01:20;24.70;54.20
14705;DHT22;7442;50.840;3.396;2023-11-21T02:04:06;24.80;54.20
14705;DHT22;7442;50.840;3.396;2023-11-21T02:06:53;24.70;54.00
14705;DHT22;7442;50.840;3.396;2023-11-21T02:09:39;24.80;54.10
14705;DHT22;7442;50.840;3.396;2023-11-21T02:12:27;24.70;54.10
14705;DHT22;7442;50.840;3.396;2023-11-21T02:15:14;24.70;54.20
14705;DHT22;7442;50.840;3.396;2023-11-21T02:18:00;24.70;54.20
14705;DHT22;7442;50.840;3.396;2023-11-21T02:20:48;24.60;54.30
14705;DHT22;7442;50.840;3.396;2023-11-21T02:23:34;24.60;54.30
14705;DHT22;7442;50.840;3.396;2023-11-21T02:26:20;24.60;54.30
14705;DHT22;7442;50.840;3.396;2023-11-21T02:29:07;24.60;54.20
14705;DHT22;7442;50.840;3.396;2023-11-21T02:31:55;24.60;54.30
14705;DHT22;7442;50.840;3.396;2023-11-21T02:34:41;24.60;54.20
14705;DHT22;7442;50.840;3.396;2023-11-21T02:37:28;24.60;54.10
14705;DHT22;7442;50.840;3.396;2023-11-21T02:40:15;24.60;54.20
14705;DHT22;7442;50.840;3.396;2023-11-21T02:43:06;24.60;54.10
14705;DHT22;7442;50.840;3.396;2023-11-21T02:45:52;24.60;54.10
14705;DHT22;7442;50.840;3.396;2023-11-21T02:48:41;24.60;54.10
14705;DHT22;7442;50.840;3.396;2023-11-21T02:51:27;24.70;54.20
14705;DHT22;7442;50.840;3.396;2023-11-21T02:54:13;24.70;54.10
14705;DHT22;7442;50.840;3.396;2023-11-21T02:57:00;24.60;54.10
14705;DHT22;7442;50.840;3.396;2023-11-21T02:59:46;24.70;54.00
14705;DHT22;7442;50.840;3.396;2023-11-21T03:02:32;24.60;54.10
14705;DHT22;7442;50.840;3.396;2023-11-21T03:05:20;24.70;54.00
14705;DHT22;7442;50.840;3.396;2023-11-21T03:08:06;24.70;54.00
14705;DHT22;7442;50.840;3.396;2023-11-21T03:10:52;24.70;53.90
14705;DHT22;7442;50.840;3.396;2023-11-21T03:13:42;24.80;53.90
14705;DHT22;7442;50.840;3.396;2023-11-21T03:16:28;24.70;53.80
14705;DHT22;7442;50.840;3.396;2023-11-21T03:19:14;24.80;53.80
14705;DHT22;7442;50.840;3.396;2023-11-21T03:22:01;24.80;53.60
14705;DHT22;7442;50.840;3.396;2023-11-21T03:24:47;24.90;53.50
14705;DHT22;7442;50.840;3.396;2023-11-21T03:27:32;24.90;53.50
14705;DHT22;7442;50.840;3.396;2023-11-21T03:30:19;24.90;53.50
14705;DHT22;7442;50.840;3.396;2023-11-21T03:33:06;24.90;53.50
14705;DHT22;7442;50.840;3.396;2023-11-21T03:35:53;24.90;53.50
14705;DHT22;7442;50.840;3.396;2023-11-21T03:38:39;24.90;53.40
14705;DHT22;7442;50.840;3.396;2023-11-21T03:41:25;24.90;53.30
14705;DHT22;7442;50.840;3.396;2023-11-21T03:44:11;25.00;53.20
14705;DHT22;7442;50.840;3.396;2023-11-21T03:46:58;24.90;53.10
14705;DHT22;7442;50.840;3.396;2023-11-21T03:49:44;25.00;53.10
14705;DHT22;7442;50.840;3.396;2023-11-21T03:52:30;25.00;53.10
14705;DHT22;7442;50.840;3.396;2023-11-21T03:55:17;25.00;53.00
14705;DHT22;7442;50.840;3.396;2023-11-21T03:58:03;25.00;53.00
14705;DHT22;7442;50.840;3.396;2023-11-21T04:00:49;25.00;53.00
14705;DHT22;7442;50.840;3.396;2023-11-21T04:03:35;24.90;53.00
14705;DHT22;7442;50.840;3.396;2023-11-21T04:06:22;25.00;53.10
14705;DHT22;7442;50.840;3.396;2023-11-21T04:09:08;24.90;53.10
14705;DHT22;7442;50.840;3.396;2023-11-21T04:11:54;24.90;53.20
14705;DHT22;7442;50.840;3.396;2023-11-21T04:14:41;24.90;53.20
14705;DHT22;7442;50.840;3.396;2023-11-21T04:17:27;24.90;53.10
14705;DHT22;7442;50.840;3.396;2023-11-21T04:20:13;24.90;53.20
14705;DHT22;7442;50.840;3.396;2023-11-21T04:22:59;24.90;53.20
14705;DHT22;7442;50.840;3.396;2023-11-21T04:25:46;24.90;53.20
14705;DHT22;7442;50.840;3.396;2023-11-21T04:28:32;24.90;53.20
14705;DHT22;7442;50.840;3.396;2023-11-21T04:31:18;24.90;53.30
14705;DHT22;7442;50.840;3.396;2023-11-21T04:34:04;24.90;53.20
14705;DHT22;7442;50.840;3.396;2023-11-21T04:36:50;24.90;53.10
14705;DHT22;7442;50.840;3.396;2023-11-21T04:39:38;25.00;53.00
14705;DHT22;7442;50.840;3.396;2023-11-21T04:42:24;25.00;53.00
14705;DHT22;7442;50.840;3.396;2023-11-21T04:45:10;25.00;53.00
14705;DHT22;7442;50.840;3.396;2023-11-21T04:47:56;25.00;53.00
14705;DHT22;7442;50.840;3.396;2023-11-21T04:50:42;25.00;53.00
14705;DHT22;7442;50.840;3.396;2023-11-21T04:53:29;25.00;53.00
14705;DHT22;7442;50.840;3.396;2023-11-21T04:56:15;25.00;53.00
14705;DHT22;7442;50.840;3.396;2023-11-21T04:59:02;25.00;52.90
14705;DHT22;7442;50.840;3.396;2023-11-21T05:01:49;25.00;52.90
14705;DHT22;7442;50.840;3.396;2023-11-21T05:04:35;25.00;53.00
14705;DHT22;7442;50.840;3.396;2023-11-21T05:07:23;25.00;53.00
14705;DHT22;7442;50.840;3.396;2023-11-21T05:10:09;25.00;52.90
14705;DHT22;7442;50.840;3.396;2023-11-21T05:13:00;25.00;52.80
14705;DHT22;7442;50.840;3.396;2023-11-21T05:15:46;25.00;52.80
14705;DHT22;7442;50.840;3.396;2023-11-21T05:18:32;25.00;52.80
14705;DHT22;7442;50.840;3.396;2023-11-21T05:21:19;25.00;52.80
14705;DHT22;7442;50.840;3.396;2023-11-21T05:24:06;25.10;52.80
14705;DHT22;7442;50.840;3.396;2023-11-21T05:26:52;25.10;52.80
14705;DHT22;7442;50.840;3.396;2023-11-21T05:29:38;25.10;52.70
14705;DHT22;7442;50.840;3.396;2023-11-21T05:32:24;25.10;52.70
14705;DHT22;7442;50.840;3.396;2023-11-21T05:35:11;25.10;52.70
14705;DHT22;7442;50.840;3.396;2023-11-21T05:38:03;25.10;52.70
14705;DHT22;7442;50.840;3.396;2023-11-21T05:40:50;25.10;52.70
14705;DHT22;7442;50.840;3.396;2023-11-21T05:43:36;25.10;52.60
14705;DHT22;7442;50.840;3.396;2023-11-21T05:46:22;25.10;52.60
14705;DHT22;7442;50.840;3.396;2023-11-21T05:49:08;25.10;52.60
14705;DHT22;7442;50.840;3.396;2023-11-21T05:51:56;25.20;52.60
14705;DHT22;7442;50.840;3.396;2023-11-21T05:54:42;25.20;52.60
14705;DHT22;7442;50.840;3.396;2023-11-21T05:57:29;25.20;52.60
14705;DHT22;7442;50.840;3.396;2023-11-21T06:00:15;25.20;52.40
14705;DHT22;7442;50.840;3.396;2023-11-21T06:03:05;25.20;52.50
14705;DHT22;7442;50.840;3.396;2023-11-21T06:05:53;25.20;52.50
14705;DHT22;7442;50.840;3.396;2023-11-21T06:08:39;25.20;52.50
14705;DHT22;7442;50.840;3.396;2023-11-21T06:11:25;25.30;52.40
14705;DHT22;7442;50.840;3.396;2023-11-21T06:14:11;25.20;52.30
14705;DHT22;7442;50.840;3.396;2023-11-21T06:16:58;25.20;52.40
14705;DHT22;7442;50.840;3.396;2023-11-21T06:19:44;25.40;52.40
14705;DHT22;7442;50.840;3.396;2023-11-21T06:22:39;25.40;52.40
14705;DHT22;7442;50.840;3.396;2023-11-21T06:25:27;25.50;52.30
14705;DHT22;7442;50.840;3.396;2023-11-21T06:28:13;25.60;52.30
14705;DHT22;7442;50.840;3.396;2023-11-21T06:31:01;25.60;52.20
14705;DHT22;7442;50.840;3.396;2023-11-21T06:33:50;25.60;52.20
14705;DHT22;7442;50.840;3.396;2023-11-21T06:36:37;25.60;52.30
14705;DHT22;7442;50.840;3.396;2023-11-21T06:39:23;25.50;52.40
14705;DHT22;7442;50.840;3.396;2023-11-21T06:42:10;25.50;51.30
14705;DHT22;7442;50.840;3.396;2023-11-21T06:44:58;25.30;52.40
14705;DHT22;7442;50.840;3.396;2023-11-21T06:47:44;25.40;52.50
14705;DHT22;7442;50.840;3.396;2023-11-21T06:50:30;25.40;52.30
14705;DHT22;7442;50.840;3.396;2023-11-21T06:53:16;25.50;52.20
14705;DHT22;7442;50.840;3.396;2023-11-21T06:56:02;25.50;52.20
14705;DHT22;7442;50.840;3.396;2023-11-21T06:58:48;25.60;52.20
14705;DHT22;7442;50.840;3.396;2023-11-21T07:01:35;25.60;52.20
14705;DHT22;7442;50.840;3.396;2023-11-21T07:04:23;25.60;52.20
14705;DHT22;7442;50.840;3.396;2023-11-21T07:07:11;25.60;52.20
14705;DHT22;7442;50.840;3.396;2023-11-21T07:09:58;25.60;52.20
14705;DHT22;7442;50.840;3.396;2023-11-21T07:12:46;25.60;52.20
14705;DHT22;7442;50.840;3.396;2023-11-21T07:15:32;25.60;52.20
14705;DHT22;7442;50.840;3.396;2023-11-21T07:18:19;25.60;52.20
14705;DHT22;7442;50.840;3.396;2023-11-21T07:21:05;25.60;52.10
14705;DHT22;7442;50.840;3.396;2023-11-21T07:23:52;25.60;52.10
14705;DHT22;7442;50.840;3.396;2023-11-21T07:26:38;25.60;52.10
14705;DHT22;7442;50.840;3.396;2023-11-21T07:29:25;25.60;52.10
14705;DHT22;7442;50.840;3.396;2023-11-21T07:32:11;25.60;52.20
14705;DHT22;7442;50.840;3.396;2023-11-21T07:34:59;25.60;52.10
14705;DHT22;7442;50.840;3.396;2023-11-21T07:37:46;25.60;52.70
14705;DHT22;7442;50.840;3.396;2023-11-21T07:40:34;25.60;52.10
14705;DHT22;7442;50.840;3.396;2023-11-21T07:43:20;25.70;52.10
14705;DHT22;7442;50.840;3.396;2023-11-21T07:46:08;25.70;52.10
14705;DHT22;7442;50.840;3.396;2023-11-21T07:48:54;25.60;52.10
14705;DHT22;7442;50.840;3.396;2023-11-21T07:51:41;25.70;52.20
14705;DHT22;7442;50.840;3.396;2023-11-21T07:54:27;25.70;52.80
14705;DHT22;7442;50.840;3.396;2023-11-21T07:57:13;25.70;52.20
14705;DHT22;7442;50.840;3.396;2023-11-21T08:00:00;25.70;52.10
14705;DHT22;7442;50.840;3.396;2023-11-21T08:02:46;25.70;52.20
14705;DHT22;7442;50.840;3.396;2023-11-21T08:05:32;25.70;52.20
14705;DHT22;7442;50.840;3.396;2023-11-21T08:08:18;25.70;52.40
14705;DHT22;7442;50.840;3.396;2023-11-21T08:11:05;25.70;52.30
14705;DHT22;7442;50.840;3.396;2023-11-21T08:13:53;25.70;52.20
14705;DHT22;7442;50.840;3.396;2023-11-21T08:16:40;25.80;52.20
14705;DHT22;7442;50.840;3.396;2023-11-21T08:19:26;25.80;52.20
14705;DHT22;7442;50.840;3.396;2023-11-21T08:22:12;25.90;52.10
14705;DHT22;7442;50.840;3.396;2023-11-21T08:24:58;25.90;52.00
14705;DHT22;7442;50.840;3.396;2023-11-21T08:27:44;25.90;52.00
14705;DHT22;7442;50.840;3.396;2023-11-21T08:30:31;25.90;51.90
14705;DHT22;7442;50.840;3.396;2023-11-21T08:33:17;26.00;51.90
14705;DHT22;7442;50.840;3.396;2023-11-21T08:36:08;26.00;51.90
14705;DHT22;7442;50.840;3.396;2023-11-21T08:38:56;25.90;51.90
14705;DHT22;7442;50.840;3.396;2023-11-21T08:41:43;25.90;51.90
14705;DHT22;7442;50.840;3.396;2023-11-21T08:44:29;26.00;51.90
14705;DHT22;7442;50.840;3.396;2023-11-21T08:47:16;26.00;51.80
14705;DHT22;7442;50.840;3.396;2023-11-21T08:50:03;26.00;51.90
14705;DHT22;7442;50.840;3.396;2023-11-21T08:52:51;25.90;52.00
14705;DHT22;7442;50.840;3.396;2023-11-21T08:55:38;25.90;52.00
14705;DHT22;7442;50.840;3.396;2023-11-21T08:58:24;25.80;52.20
14705;DHT22;7442;50.840;3.396;2023-11-21T09:01:11;25.80;52.10
14705;DHT22;7442;50.840;3.396;2023-11-21T09:03:59;25.90;52.00
14705;DHT22;7442;50.840;3.396;2023-11-21T09:06:45;26.00;51.90
14705;DHT22;7442;50.840;3.396;2023-11-21T09:09:31;26.10;51.80
14705;DHT22;7442;50.840;3.396;2023-11-21T09:12:18;26.10;51.80
14705;DHT22;7442;50.840;3.396;2023-11-21T09:15:08;26.10;51.70
14705;DHT22;7442;50.840;3.396;2023-11-21T09:17:55;26.10;51.60
14705;DHT22;7442;50.840;3.396;2023-11-21T09:20:43;26.00;51.80
14705;DHT22;7442;50.840;3.396;2023-11-21T09:23:32;25.90;52.10
14705;DHT22;7442;50.840;3.396;2023-11-21T09:26:18;25.80;52.20
14705;DHT22;7442;50.840;3.396;2023-11-21T09:29:05;25.80;52.20
14705;DHT22;7442;50.840;3.396;2023-11-21T09:31:53;25.80;52.40
14705;DHT22;7442;50.840;3.396;2023-11-21T09:34:40;25.70;52.40
14705;DHT22;7442;50.840;3.396;2023-11-21T09:37:26;25.70;52.30
14705;DHT22;7442;50.840;3.396;2023-11-21T09:40:14;25.80;52.30
14705;DHT22;7442;50.840;3.396;2023-11-21T09:43:08;25.80;52.40
14705;DHT22;7442;50.840;3.396;2023-11-21T09:45:56;25.80;52.40
14705;DHT22;7442;50.840;3.396;2023-11-21T09:48:43;25.80;52.40
14705;DHT22;7442;50.840;3.396;2023-11-21T09:51:31;25.90;52.30
14705;DHT22;7442;50.840;3.396;2023-11-21T09:54:20;26.00;52.10
14705;DHT22;7442;50.840;3.396;2023-11-21T09:57:06;26.00;52.00
14705;DHT22;7442;50.840;3.396;2023-11-21T09:59:54;26.10;52.60
14705;DHT22;7442;50.840;3.396;2023-11-21T10:02:43;26.00;52.00
14705;DHT22;7442;50.840;3.396;2023-11-21T10:05:29;26.20;51.90
14705;DHT22;7442;50.840;3.396;2023-11-21T10:08:17;26.20;51.60
14705;DHT22;7442;50.840;3.396;2023-11-21T10:11:07;26.40;51.40
14705;DHT22;7442;50.840;3.396;2023-11-21T10:13:57;26.20;51.70
14705;DHT22;7442;50.840;3.396;2023-11-21T10:16:45;26.10;51.90
14705;DHT22;7442;50.840;3.396;2023-11-21T10:19:35;26.10;52.00
14705;DHT22;7442;50.840;3.396;2023-11-21T10:22:22;26.00;52.00
14705;DHT22;7442;50.840;3.396;2023-11-21T10:25:09;26.00;52.10
14705;DHT22;7442;50.840;3.396;2023-11-21T10:27:59;25.90;52.30
14705;DHT22;7442;50.840;3.396;2023-11-21T10:30:46;25.80;52.30
14705;DHT22;7442;50.840;3.396;2023-11-21T10:33:33;25.80;52.50
14705;DHT22;7442;50.840;3.396;2023-11-21T10:36:27;26.00;52.20
14705;DHT22;7442;50.840;3.396;2023-11-21T10:39:21;26.10;52.10
14705;DHT22;7442;50.840;3.396;2023-11-21T10:42:09;26.10;52.00
14705;DHT22;7442;50.840;3.396;2023-11-21T10:44:55;26.20;52.00
14705;DHT22;7442;50.840;3.396;2023-11-21T10:47:43;26.20;52.20
14705;DHT22;7442;50.840;3.396;2023-11-21T10:50:29;26.10;52.10
14705;DHT22;7442;50.840;3.396;2023-11-21T10:53:16;26.00;52.20
14705;DHT22;7442;50.840;3.396;2023-11-21T10:56:05;26.00;51.90
14705;DHT22;7442;50.840;3.396;2023-11-21T10:58:59;26.00;52.10
14705;DHT22;7442;50.840;3.396;2023-11-21T11:01:46;26.10;52.10
14705;DHT22;7442;50.840;3.396;2023-11-21T11:04:34;26.10;52.10
14705;DHT22;7442;50.840;3.396;2023-11-21T11:07:25;26.10;52.10
14705;DHT22;7442;50.840;3.396;2023-11-21T11:10:13;26.10;52.10
14705;DHT22;7442;50.840;3.396;2023-11-21T11:13:00;26.10;52.00
14705;DHT22;7442;50.840;3.396;2023-11-21T11:15:50;26.10;52.00
14705;DHT22;7442;50.840;3.396;2023-11-21T11:18:36;26.10;52.00
14705;DHT22;7442;50.840;3.396;2023-11-21T11:21:31;26.10;51.90
14705;DHT22;7442;50.840;3.396;2023-11-21T11:27:49;26.00;52.10
14705;DHT22;7442;50.840;3.396;2023-11-21T11:36:41;26.10;52.00
14705;DHT22;7442;50.840;3.396;2023-11-21T11:39:31;26.10;52.00
14705;DHT22;7442;50.840;3.396;2023-11-21T11:42:18;26.20;51.80
14705;DHT22;7442;50.840;3.396;2023-11-21T11:45:53;26.40;51.40
14705;DHT22;7442;50.840;3.396;2023-11-21T11:47:57;26.50;51.20
14705;DHT22;7442;50.840;3.396;2023-11-21T11:51:12;26.60;51.00
14705;DHT22;7442;50.840;3.396;2023-11-21T11:54:00;26.60;50.80
14705;DHT22;7442;50.840;3.396;2023-11-21T11:56:47;26.60;50.90
14705;DHT22;7442;50.840;3.396;2023-11-21T12:00:06;26.60;51.10
14705;DHT22;7442;50.840;3.396;2023-11-21T12:02:24;26.50;51.10
14705;DHT22;7442;50.840;3.396;2023-11-21T12:05:12;26.50;51.20
14705;DHT22;7442;50.840;3.396;2023-11-21T12:08:04;26.40;51.30
14705;DHT22;7442;50.840;3.396;2023-11-21T12:10:51;26.40;51.40
14705;DHT22;7442;50.840;3.396;2023-11-21T12:13:39;26.30;51.60
14705;DHT22;7442;50.840;3.396;2023-11-21T12:16:26;26.30;51.70
14705;DHT22;7442;50.840;3.396;2023-11-21T12:19:13;26.50;51.30
14705;DHT22;7442;50.840;3.396;2023-11-21T12:22:00;26.50;51.00
14705;DHT22;7442;50.840;3.396;2023-11-21T12:24:46;26.70;50.70
14705;DHT22;7442;50.840;3.396;2023-11-21T12:27:32;26.90;50.40
14705;DHT22;7442;50.840;3.396;2023-11-21T12:30:21;26.90;50.30
14705;DHT22;7442;50.840;3.396;2023-11-21T12:33:08;26.70;50.60
14705;DHT22;7442;50.840;3.396;2023-11-21T12:35:54;26.70;50.70
14705;DHT22;7442;50.840;3.396;2023-11-21T12:38:43;26.70;50.70
14705;DHT22;7442;50.840;3.396;2023-11-21T12:41:29;26.80;50.60
14705;DHT22;7442;50.840;3.396;2023-11-21T12:44:15;26.70;51.10
14705;DHT22;7442;50.840;3.396;2023-11-21T12:47:03;26.70;50.60
14705;DHT22;7442;50.840;3.396;2023-11-21T12:49:51;26.80;50.60
14705;DHT22;7442;50.840;3.396;2023-11-21T12:52:38;26.70;50.60
14705;DHT22;7442;50.840;3.396;2023-11-21T12:55:25;26.70;50.70
14705;DHT22;7442;50.840;3.396;2023-11-21T12:58:12;26.60;50.60
14705;DHT22;7442;50.840;3.396;2023-11-21T13:00:59;26.60;50.30
14705;DHT22;7442;50.840;3.396;2023-11-21T13:03:48;26.50;50.60
14705;DHT22;7442;50.840;3.396;2023-11-21T13:06:36;26.40;50.90
14705;DHT22;7442;50.840;3.396;2023-11-21T13:09:24;26.50;50.80
14705;DHT22;7442;50.840;3.396;2023-11-21T13:12:10;26.40;50.90
14705;DHT22;7442;50.840;3.396;2023-11-21T13:15:03;26.40;51.00
14705;DHT22;7442;50.840;3.396;2023-11-21T13:17:47;26.30;51.20
14705;DHT22;7442;50.840;3.396;2023-11-21T13:20:34;26.10;51.40
14705;DHT22;7442;50.840;3.396;2023-11-21T13:23:20;26.00;51.50
14705;DHT22;7442;50.840;3.396;2023-11-21T13:26:08;26.00;51.70
14705;DHT22;7442;50.840;3.396;2023-11-21T13:28:54;26.10;51.60
14705;DHT22;7442;50.840;3.396;2023-11-21T13:31:42;26.30;51.00
14705;DHT22;7442;50.840;3.396;2023-11-21T13:34:29;26.50;50.80
14705;DHT22;7442;50.840;3.396;2023-11-21T13:37:15;26.60;50.40
14705;DHT22;7442;50.840;3.396;2023-11-21T13:40:01;26.70;50.30
14705;DHT22;7442;50.840;3.396;2023-11-21T13:42:50;26.80;49.90
14705;DHT22;7442;50.840;3.396;2023-11-21T13:45:39;26.80;49.90
14705;DHT22;7442;50.840;3.396;2023-11-21T13:48:26;26.90;49.80
14705;DHT22;7442;50.840;3.396;2023-11-21T13:51:16;26.80;49.90
14705;DHT22;7442;50.840;3.396;2023-11-21T13:54:06;26.80;50.00
14705;DHT22;7442;50.840;3.396;2023-11-21T13:56:55;26.80;50.10
14705;DHT22;7442;50.840;3.396;2023-11-21T13:59:41;26.80;49.90
14705;DHT22;7442;50.840;3.396;2023-11-21T14:02:29;26.90;49.80
14705;DHT22;7442;50.840;3.396;2023-11-21T14:05:16;26.90;49.80
14705;DHT22;7442;50.840;3.396;2023-11-21T14:08:05;26.80;49.80
14705;DHT22;7442;50.840;3.396;2023-11-21T14:10:51;26.90;49.80
14705;DHT22;7442;50.840;3.396;2023-11-21T14:13:39;26.80;49.80
14705;DHT22;7442;50.840;3.396;2023-11-21T14:16:27;26.90;49.90
14705;DHT22;7442;50.840;3.396;2023-11-21T14:19:13;26.70;50.10
14705;DHT22;7442;50.840;3.396;2023-11-21T14:22:02;26.70;50.20
14705;DHT22;7442;50.840;3.396;2023-11-21T14:24:49;26.60;50.90
14705;DHT22;7442;50.840;3.396;2023-11-21T14:27:37;26.60;50.40
14705;DHT22;7442;50.840;3.396;2023-11-21T14:30:24;26.60;50.50
14705;DHT22;7442;50.840;3.396;2023-11-21T14:33:11;26.50;50.60
14705;DHT22;7442;50.840;3.396;2023-11-21T14:35:58;26.40;50.60
14705;DHT22;7442;50.840;3.396;2023-11-21T14:38:44;26.40;51.00
14705;DHT22;7442;50.840;3.396;2023-11-21T14:41:31;26.40;51.00
14705;DHT22;7442;50.840;3.396;2023-11-21T14:44:17;26.40;51.00
14705;DHT22;7442;50.840;3.396;2023-11-21T14:47:03;26.40;51.00
14705;DHT22;7442;50.840;3.396;2023-11-21T14:49:57;26.30;51.10
14705;DHT22;7442;50.840;3.396;2023-11-21T14:52:45;26.30;51.30
14705;DHT22;7442;50.840;3.396;2023-11-21T14:55:33;26.20;51.30
14705;DHT22;7442;50.840;3.396;2023-11-21T14:58:40;26.10;51.40
14705;DHT22;7442;50.840;3.396;2023-11-21T15:01:26;26.10;51.70
14705;DHT22;7442;50.840;3.396;2023-11-21T15:04:14;26.10;51.50
14705;DHT22;7442;50.840;3.396;2023-11-21T15:07:03;26.10;51.50
14705;DHT22;7442;50.840;3.396;2023-11-21T15:09:49;26.20;51.40
14705;DHT22;7442;50.840;3.396;2023-11-21T15:12:36;26.30;51.30
14705;DHT22;7442;50.840;3.396;2023-11-21T15:15:24;26.30;51.10
14705;DHT22;7442;50.840;3.396;2023-11-21T15:18:12;26.30;51.20
14705;DHT22;7442;50.840;3.396;2023-11-21T15:20:59;26.30;51.10
14705;DHT22;7442;50.840;3.396;2023-11-21T15:23:45;26.30;51.20
14705;DHT22;7442;50.840;3.396;2023-11-21T15:26:32;26.30;51.20
14705;DHT22;7442;50.840;3.396;2023-11-21T15:29:18;26.20;51.20
14705;DHT22;7442;50.840;3.396;2023-11-21T15:32:06;26.20;51.20
14705;DHT22;7442;50.840;3.396;2023-11-21T15:34:53;26.20;51.20
14705;DHT22;7442;50.840;3.396;2023-11-21T15:37:39;26.10;51.40
14705;DHT22;7442;50.840;3.396;2023-11-21T15:40:26;26.00;51.50
14705;DHT22;7442;50.840;3.396;2023-11-21T15:43:12;26.00;51.60
14705;DHT22;7442;50.840;3.396;2023-11-21T15:45:59;25.90;51.70
14705;DHT22;7442;50.840;3.396;2023-11-21T15:48:47;25.90;51.80
14705;DHT22;7442;50.840;3.396;2023-11-21T15:51:39;25.90;51.80
14705;DHT22;7442;50.840;3.396;2023-11-21T15:54:27;25.80;51.90
14705;DHT22;7442;50.840;3.396;2023-11-21T15:57:15;25.80;51.90
14705;DHT22;7442;50.840;3.396;2023-11-21T16:00:02;25.80;52.50
14705;DHT22;7442;50.840;3.396;2023-11-21T16:02:50;25.70;51.80
14705;DHT22;7442;50.840;3.396;2023-11-21T16:05:38;25.70;51.90
14705;DHT22;7442;50.840;3.396;2023-11-21T16:08:25;25.70;52.00
14705;DHT22;7442;50.840;3.396;2023-11-21T16:11:11;25.60;52.00
14705;DHT22;7442;50.840;3.396;2023-11-21T16:13:58;25.60;52.00
14705;DHT22;7442;50.840;3.396;2023-11-21T16:16:45;25.60;52.00
14705;DHT22;7442;50.840;3.396;2023-11-21T16:19:32;25.60;52.10
14705;DHT22;7442;50.840;3.396;2023-11-21T16:22:19;25.50;49.20
14705;DHT22;7442;50.840;3.396;2023-11-21T16:25:07;25.50;51.20
14705;DHT22;7442;50.840;3.396;2023-11-21T16:27:57;25.50;51.50
14705;DHT22;7442;50.840;3.396;2023-11-21T16:30:45;25.50;51.50
14705;DHT22;7442;50.840;3.396;2023-11-21T16:33:31;25.50;51.50
14705;DHT22;7442;50.840;3.396;2023-11-21T16:36:18;25.50;51.50
14705;DHT22;7442;50.840;3.396;2023-11-21T16:39:04;25.50;51.50
14705;DHT22;7442;50.840;3.396;2023-11-21T16:41:51;25.60;51.30
14705;DHT22;7442;50.840;3.396;2023-11-21T16:44:38;25.70;51.00
14705;DHT22;7442;50.840;3.396;2023-11-21T16:47:24;25.70;51.10
14705;DHT22;7442;50.840;3.396;2023-11-21T16:50:10;25.70;51.10
14705;DHT22;7442;50.840;3.396;2023-11-21T16:52:56;25.70;51.00
14705;DHT22;7442;50.840;3.396;2023-11-21T16:55:43;25.60;51.20
14705;DHT22;7442;50.840;3.396;2023-11-21T16:58:30;25.60;51.10
14705;DHT22;7442;50.840;3.396;2023-11-21T17:01:18;25.60;51.20
14705;DHT22;7442;50.840;3.396;2023-11-21T17:04:05;25.50;51.20
14705;DHT22;7442;50.840;3.396;2023-11-21T17:06:53;25.60;51.20
14705;DHT22;7442;50.840;3.396;2023-11-21T17:09:39;25.50;51.30
14705;DHT22;7442;50.840;3.396;2023-11-21T17:12:26;25.50;51.40
14705;DHT22;7442;50.840;3.396;2023-11-21T17:15:12;25.40;51.50
14705;DHT22;7442;50.840;3.396;2023-11-21T17:17:58;25.50;51.50
14705;DHT22;7442;50.840;3.396;2023-11-21T17:20:46;25.40;51.60
14705;DHT22;7442;50.840;3.396;2023-11-21T17:23:34;25.40;51.70
14705;DHT22;7442;50.840;3.396;2023-11-21T17:26:20;25.40;51.70
14705;DHT22;7442;50.840;3.396;2023-11-21T17:29:06;25.30;51.80
14705;DHT22;7442;50.840;3.396;2023-11-21T17:31:54;25.30;51.80
14705;DHT22;7442;50.840;3.396;2023-11-21T17:34:40;25.30;51.90
14705;DHT22;7442;50.840;3.396;2023-11-21T17:37:27;25.50;51.80
14705;DHT22;7442;50.840;3.396;2023-11-21T17:40:13;25.50;51.70
14705;DHT22;7442;50.840;3.396;2023-11-21T17:42:59;25.40;51.80
14705;DHT22;7442;50.840;3.396;2023-11-21T17:45:45;25.40;51.90
14705;DHT22;7442;50.840;3.396;2023-11-21T17:48:32;25.40;52.00
14705;DHT22;7442;50.840;3.396;2023-11-21T17:51:18;25.30;52.10
14705;DHT22;7442;50.840;3.396;2023-11-21T17:54:04;25.40;52.20
14705;DHT22;7442;50.840;3.396;2023-11-21T17:56:50;25.30;52.20
14705;DHT22;7442;50.840;3.396;2023-11-21T17:59:38;25.30;52.30
14705;DHT22;7442;50.840;3.396;2023-11-21T18:02:25;25.30;52.40